Time;durP1;ratioP1;P1;durP2;ratioP2;P2;SDS_P1;SDS_P2;PMS_P1;PMS_P2;Temp;Humidity;BMP_temperature;BMP_pressure;BME280_temperature;BME280_humidity;BME280_pressure;Samples;Min_cycle;Max_cycle;Signal;HPM_P1;HPM_P2
2021/08/02 00:01:29;;;;;;;4.25;1.80;;;27.30;47.90;;;;;;4990910;28;20029;-56
2021/08/02 00:04:11;;;;;;;3.22;1.80;;;27.20;47.80;;;;;;4991226;28;20066;-56
2021/08/02 00:06:51;;;;;;;3.03;1.88;;;27.20;47.90;;;;;;4973528;28;20050;-56
2021/08/02 00:09:29;;;;;;;3.67;1.92;;;27.20;48.00;;;;;;4992499;28;20022;-57
2021/08/02 00:12:00;;;;;;;4.10;1.90;;;27.20;48.00;;;;;;4992883;28;20033;-55
2021/08/02 00:14:26;;;;;;;2.40;1.63;;;27.20;48.10;;;;;;4992479;28;20026;-54
2021/08/02 00:16:52;;;;;;;3.58;2.15;;;27.20;48.10;;;;;;4992864;28;20130;-57
2021/08/02 00:19:18;;;;;;;2.58;1.85;;;27.20;48.10;;;;;;4975230;28;20121;-56
2021/08/02 00:21:46;;;;;;;3.03;2.00;;;27.20;48.10;;;;;;4992063;28;20058;-57
2021/08/02 00:24:12;;;;;;;4.25;1.92;;;27.20;48.10;;;;;;4992189;28;20470;-55
2021/08/02 00:26:40;;;;;;;3.20;2.22;;;27.20;48.10;;;;;;4991985;28;20066;-55
2021/08/02 00:29:07;;;;;;;4.00;1.80;;;27.20;48.00;;;;;;4975231;28;20034;-57
2021/08/02 00:31:33;;;;;;;2.22;1.85;;;27.20;48.00;;;;;;4991991;28;20037;-57
2021/08/02 00:33:59;;;;;;;3.55;2.10;;;27.20;48.00;;;;;;4992313;28;20030;-56
2021/08/02 00:36:42;;;;;;;3.15;1.90;;;27.20;48.00;;;;;;4992823;28;20030;-55
2021/08/02 00:39:27;;;;;;;3.05;1.90;;;27.10;48.00;;;;;;4992533;28;20018;-57
2021/08/02 00:42:23;;;;;;;4.03;2.10;;;27.20;48.00;;;;;;4992380;28;20030;-55
2021/08/02 00:45:03;;;;;;;2.63;2.03;;;27.10;48.00;;;;;;4991561;28;20037;-56
2021/08/02 00:47:57;;;;;;;4.82;1.90;;;27.10;47.90;;;;;;4991854;28;20061;-56
2021/08/02 00:50:26;;;;;;;2.92;2.20;;;27.10;48.00;;;;;;4992082;28;20038;-57
2021/08/02 00:53:14;;;;;;;3.15;1.98;;;27.10;47.90;;;;;;4991552;28;20026;-56
2021/08/02 00:55:45;;;;;;;2.72;2.13;;;27.10;47.90;;;;;;4991768;28;20029;-57
2021/08/02 00:58:14;;;;;;;5.30;2.00;;;27.10;47.80;;;;;;4992361;28;20050;-57
2021/08/02 01:00:42;;;;;;;3.05;1.80;;;27.10;47.70;;;;;;4991568;28;20080;-57
2021/08/02 01:03:10;;;;;;;4.05;2.45;;;27.10;47.70;;;;;;4974621;28;20482;-56
2021/08/02 01:05:38;;;;;;;3.47;2.10;;;27.10;47.70;;;;;;4974043;28;20050;-53
2021/08/02 01:08:10;;;;;;;3.00;1.80;;;27.10;47.60;;;;;;4974631;28;20038;-57
2021/08/02 01:10:36;;;;;;;4.40;1.92;;;27.10;47.60;;;;;;4991708;28;20022;-56
2021/08/02 01:13:05;;;;;;;2.35;1.90;;;27.10;47.60;;;;;;4974885;28;20047;-48
2021/08/02 01:15:32;;;;;;;2.85;1.95;;;27.10;47.70;;;;;;4991732;28;20030;-49
2021/08/02 01:17:59;;;;;;;2.97;2.13;;;27.10;47.70;;;;;;4992294;28;20030;-50
2021/08/02 01:20:30;;;;;;;3.55;1.77;;;27.10;47.60;;;;;;4992307;28;20101;-47
2021/08/02 01:22:58;;;;;;;3.58;1.73;;;27.10;47.70;;;;;;4992690;28;20073;-47
2021/08/02 01:25:38;;;;;;;2.83;1.63;;;27.00;47.60;;;;;;4992268;28;20042;-47
2021/08/02 01:28:13;;;;;;;2.20;1.52;;;27.00;47.70;;;;;;4992435;28;20113;-48
2021/08/02 01:30:52;;;;;;;2.40;1.77;;;27.00;47.60;;;;;;4991585;28;20069;-47
2021/08/02 01:33:29;;;;;;;2.63;1.60;;;27.00;47.70;;;;;;4992106;28;20117;-47
2021/08/02 01:36:00;;;;;;;3.10;1.92;;;27.00;47.70;;;;;;4992219;28;20030;-48
2021/08/02 01:38:27;;;;;;;2.88;1.50;;;27.00;47.60;;;;;;4991936;28;20030;-48
2021/08/02 01:40:53;;;;;;;2.00;1.48;;;27.00;48.30;;;;;;4991419;28;20080;-49
2021/08/02 01:43:19;;;;;;;2.22;1.50;;;27.10;47.80;;;;;;4991833;28;20104;-49
2021/08/02 01:46:11;;;;;;;2.20;1.40;;;27.00;47.70;;;;;;4991515;28;20018;-49
2021/08/02 01:48:44;;;;;;;1.80;1.40;;;27.00;47.80;;;;;;4992022;28;20504;-48
2021/08/02 01:51:28;;;;;;;2.08;1.30;;;27.00;47.70;;;;;;4994532;28;20025;-48
2021/08/02 01:53:53;;;;;;;;;;;27.00;47.70;;;;;;4995785;28;20065;-49
2021/08/02 01:56:25;;;;;;;1.70;1.20;;;27.10;47.70;;;;;;4995757;28;20353;-49
2021/08/02 01:58:54;;;;;;;2.20;1.45;;;27.00;47.50;;;;;;4994912;28;20477;-48
2021/08/02 02:01:22;;;;;;;1.80;1.35;;;27.00;47.60;;;;;;4995662;28;20030;-49
2021/08/02 02:03:50;;;;;;;2.28;1.27;;;27.00;47.60;;;;;;4995010;28;20034;-53
2021/08/02 02:06:17;;;;;;;1.65;1.10;;;27.00;47.60;;;;;;4995464;28;20516;-51
2021/08/02 02:08:59;;;;;;;3.72;1.30;;;27.00;47.60;;;;;;4977533;28;20048;-49
2021/08/02 02:11:26;;;;;;;4.13;1.38;;;27.00;47.60;;;;;;4977915;28;20051;-47
2021/08/02 02:13:59;;;;;;;1.98;1.20;;;27.00;47.50;;;;;;4994641;28;20026;-47
2021/08/02 02:16:26;;;;;;;2.33;1.40;;;26.90;47.50;;;;;;4995504;28;20028;-50
2021/08/02 02:18:55;;;;;;;2.40;1.23;;;27.00;47.50;;;;;;4994808;28;20105;-49
2021/08/02 02:21:25;;;;;;;2.90;1.73;;;26.90;47.40;;;;;;4994962;28;20437;-48
2021/08/02 02:23:51;;;;;;;3.40;1.30;;;26.90;47.40;;;;;;4994676;28;20101;-50
2021/08/02 02:26:18;;;;;;;2.15;1.30;;;26.90;47.40;;;;;;4994932;28;20022;-50
2021/08/02 02:29:03;;;;;;;2.60;1.17;;;26.90;47.30;;;;;;4977160;28;20031;-48
2021/08/02 02:31:29;;;;;;;2.33;1.23;;;26.90;47.40;;;;;;4995103;28;20026;-49
2021/08/02 02:33:58;;;;;;;3.47;1.23;;;26.90;47.40;;;;;;4994536;28;20208;-47
2021/08/02 02:36:24;;;;;;;1.63;1.20;;;26.90;47.40;;;;;;4977908;28;20026;-47
2021/08/02 02:38:51;;;;;;;1.35;1.10;;;26.90;47.30;;;;;;4994478;28;20046;-52
2021/08/02 02:41:22;;;;;;;2.83;1.42;;;26.90;47.30;;;;;;4977460;28;20030;-49
2021/08/02 02:43:49;;;;;;;1.70;1.20;;;26.80;47.30;;;;;;4994333;28;20041;-52
2021/08/02 02:46:18;;;;;;;4.90;2.05;;;26.90;47.30;;;;;;4994580;28;20027;-49
2021/08/02 02:48:45;;;;;;;1.83;1.25;;;26.80;47.30;;;;;;4994352;28;20023;-48
2021/08/02 02:51:12;;;;;;;1.88;1.30;;;26.80;47.30;;;;;;4977432;28;20113;-49
2021/08/02 02:53:42;;;;;;;1.75;1.25;;;26.80;47.30;;;;;;4993945;28;20386;-49
2021/08/02 02:56:11;;;;;;;2.53;1.13;;;26.80;47.30;;;;;;4994408;28;20033;-50
2021/08/02 02:58:37;;;;;;;1.50;1.30;;;26.80;47.30;;;;;;4994588;28;20034;-48
2021/08/02 03:01:04;;;;;;;2.15;1.40;;;26.80;47.30;;;;;;4994242;28;20033;-47
2021/08/02 03:03:33;;;;;;;2.17;1.30;;;26.80;47.30;;;;;;4976502;28;20041;-47
2021/08/02 03:06:00;;;;;;;2.70;1.30;;;26.80;47.20;;;;;;4976270;28;20051;-47
2021/08/02 03:08:27;;;;;;;2.20;1.40;;;26.80;47.20;;;;;;4994242;28;20088;-49
2021/08/02 03:10:54;;;;;;;1.90;1.30;;;26.80;47.20;;;;;;4976083;28;20350;-50
2021/08/02 03:13:21;;;;;;;1.88;1.30;;;26.80;47.10;;;;;;4993942;28;20026;-50
2021/08/02 03:15:47;;;;;;;2.95;1.48;;;26.80;47.10;;;;;;4976233;28;20496;-49
2021/08/02 03:18:13;;;;;;;2.75;1.10;;;26.80;47.00;;;;;;4993929;28;20026;-51
2021/08/02 03:20:41;;;;;;;1.80;1.27;;;26.80;47.10;;;;;;4993860;28;20089;-47
2021/08/02 03:23:20;;;;;;;2.28;1.30;;;26.80;47.00;;;;;;4976604;28;20081;-49
2021/08/02 03:25:54;;;;;;;2.42;1.42;;;26.70;47.00;;;;;;4976154;28;20389;-49
2021/08/02 03:28:32;;;;;;;1.90;1.20;;;26.80;47.00;;;;;;4993863;28;20105;-47
2021/08/02 03:31:02;;;;;;;3.05;1.30;;;26.70;46.90;;;;;;4993423;28;20029;-49
2021/08/02 03:33:33;;;;;;;4.20;1.30;;;26.80;46.90;;;;;;4993599;28;20397;-52
2021/08/02 03:36:03;;;;;;;3.08;1.40;;;26.70;46.80;;;;;;4993080;28;20022;-48
2021/08/02 03:38:30;;;;;;;2.40;1.30;;;26.80;46.90;;;;;;4993769;28;20057;-48
2021/08/02 03:40:57;;;;;;;2.20;1.60;;;26.80;46.90;;;;;;4993425;28;20026;-48
2021/08/02 03:43:23;;;;;;;1.92;1.30;;;26.80;46.90;;;;;;4993497;28;20481;-51
2021/08/02 03:45:50;;;;;;;1.88;1.30;;;26.80;46.80;;;;;;4993007;28;20030;-52
2021/08/02 03:48:19;;;;;;;2.83;1.45;;;26.70;46.70;;;;;;4993547;28;20096;-47
2021/08/02 03:50:46;;;;;;;2.05;1.23;;;26.70;46.80;;;;;;4993055;28;20026;-49
2021/08/02 03:53:12;;;;;;;2.42;1.30;;;26.70;46.70;;;;;;4993164;28;20442;-53
2021/08/02 03:55:38;;;;;;;1.60;1.13;;;26.70;46.80;;;;;;4993451;28;20084;-51
2021/08/02 03:58:06;;;;;;;3.05;1.30;;;26.70;46.80;;;;;;4992639;28;20026;-50
2021/08/02 04:00:32;;;;;;;2.05;1.40;;;26.70;46.70;;;;;;4993299;28;20026;-50
2021/08/02 04:02:58;;;;;;;2.30;1.40;;;26.70;46.70;;;;;;4975087;28;20022;-52
2021/08/02 04:05:24;;;;;;;2.45;1.50;;;26.80;46.80;;;;;;4975307;28;20042;-49
2021/08/02 04:07:49;;;;;;;1.70;1.40;;;26.70;46.70;;;;;;4992251;28;20430;-51
2021/08/02 04:10:15;;;;;;;3.75;1.50;;;26.80;46.70;;;;;;4992844;28;20086;-49
2021/08/02 04:12:41;;;;;;;2.70;1.55;;;26.80;46.70;;;;;;4992918;28;20050;-50
2021/08/02 04:15:09;;;;;;;2.78;1.50;;;26.80;46.70;;;;;;4992346;28;20034;-49
2021/08/02 04:17:35;;;;;;;3.00;1.40;;;26.70;46.60;;;;;;4993047;28;20027;-51
2021/08/02 04:20:01;;;;;;;2.33;1.58;;;26.80;46.70;;;;;;4992553;28;20026;-50
2021/08/02 04:22:26;;;;;;;2.60;1.60;;;26.70;46.60;;;;;;4992786;28;20030;-49
2021/08/02 04:24:52;;;;;;;2.75;1.10;;;26.80;46.70;;;;;;4974993;28;20042;-52
2021/08/02 04:27:18;;;;;;;2.75;1.38;;;26.70;46.60;;;;;;4993060;28;20053;-51
2021/08/02 04:29:44;;;;;;;2.15;1.30;;;26.70;46.60;;;;;;4992898;28;20374;-53
2021/08/02 04:32:10;;;;;;;1.70;1.30;;;26.70;46.60;;;;;;4992973;28;20148;-50
2021/08/02 04:34:35;;;;;;;1.52;1.15;;;26.70;46.50;;;;;;4992928;28;20030;-50
2021/08/02 04:37:01;;;;;;;2.20;1.30;;;26.70;46.50;;;;;;4992073;28;20022;-53
2021/08/02 04:39:27;;;;;;;4.22;1.42;;;26.80;46.60;;;;;;4992838;28;20022;-51
2021/08/02 04:41:52;;;;;;;2.38;1.40;;;26.80;46.50;;;;;;4991922;28;20105;-48
2021/08/02 04:44:18;;;;;;;2.35;1.30;;;26.80;46.50;;;;;;4992695;28;20026;-53
2021/08/02 04:46:43;;;;;;;3.10;1.67;;;26.80;46.50;;;;;;4992480;28;20027;-53
2021/08/02 04:49:09;;;;;;;3.20;1.50;;;26.80;46.50;;;;;;4992179;28;20031;-54
2021/08/02 04:51:35;;;;;;;2.85;1.52;;;26.80;46.50;;;;;;4992375;28;20049;-51
2021/08/02 04:54:01;;;;;;;4.72;1.50;;;26.80;46.40;;;;;;4992039;28;20026;-49
2021/08/02 04:56:28;;;;;;;2.42;1.27;;;26.80;46.40;;;;;;4992604;28;20042;-53
2021/08/02 04:58:53;;;;;;;2.42;1.50;;;26.80;46.40;;;;;;4974483;28;20030;-50
2021/08/02 05:01:20;;;;;;;2.15;1.45;;;26.80;46.40;;;;;;4992833;28;20037;-48
2021/08/02 05:03:46;;;;;;;2.80;1.48;;;26.80;46.40;;;;;;4992704;28;20037;-47
2021/08/02 05:06:12;;;;;;;2.92;1.38;;;26.80;46.40;;;;;;4974813;28;20046;-49
2021/08/02 05:08:38;;;;;;;2.03;1.23;;;26.80;46.40;;;;;;4975173;28;20045;-47
2021/08/02 05:11:03;;;;;;;2.10;1.20;;;26.80;46.40;;;;;;4974717;28;20556;-51
2021/08/02 05:13:29;;;;;;;2.08;1.40;;;26.80;46.30;;;;;;4992670;28;20476;-47
2021/08/02 05:15:55;;;;;;;4.40;1.42;;;26.80;46.20;;;;;;4992082;28;20026;-50
2021/08/02 05:18:21;;;;;;;1.95;1.33;;;26.80;46.20;;;;;;4992329;28;20110;-51
2021/08/02 05:20:46;;;;;;;3.05;1.40;;;26.80;46.30;;;;;;4992294;28;20469;-51
2021/08/02 05:23:12;;;;;;;1.77;1.20;;;26.80;46.20;;;;;;4991710;28;20535;-51
2021/08/02 05:25:38;;;;;;;3.88;1.30;;;26.80;46.20;;;;;;4993940;28;20374;-49
2021/08/02 05:28:04;;;;;;;2.42;1.38;;;26.80;46.10;;;;;;4978278;28;20465;-53
2021/08/02 05:30:30;;;;;;;3.97;1.60;;;26.80;46.10;;;;;;4996061;28;20030;-52
2021/08/02 05:32:55;;;;;;;3.13;1.48;;;26.80;46.10;;;;;;4995673;28;20038;-53
2021/08/02 05:35:21;;;;;;;4.13;1.42;;;26.90;46.30;;;;;;4996341;28;20470;-52
2021/08/02 05:37:47;;;;;;;2.25;1.42;;;26.80;46.10;;;;;;4996774;28;20018;-54
2021/08/02 05:40:13;;;;;;;4.30;1.63;;;26.80;46.10;;;;;;4996386;28;20457;-51
2021/08/02 05:42:39;;;;;;;4.20;1.42;;;26.90;46.20;;;;;;4996205;28;20030;-51
2021/08/02 05:45:06;;;;;;;2.40;1.50;;;26.90;46.20;;;;;;4995407;28;20351;-54
2021/08/02 05:47:32;;;;;;;4.38;1.50;;;26.90;46.10;;;;;;4995839;28;20481;-53
2021/08/02 05:49:58;;;;;;;3.15;1.60;;;26.90;46.10;;;;;;4995596;28;20022;-53
2021/08/02 05:52:24;;;;;;;4.78;1.75;;;26.90;46.00;;;;;;4996639;28;20329;-54
2021/08/02 05:54:51;;;;;;;4.15;1.60;;;26.90;46.00;;;;;;4978954;28;20394;-53
2021/08/02 05:57:20;;;;;;;2.55;1.50;;;26.90;46.00;;;;;;4996709;28;20096;-49
2021/08/02 05:59:46;;;;;;;3.67;1.58;;;26.90;45.90;;;;;;4996060;28;20105;-52
2021/08/02 06:02:12;;;;;;;3.33;1.42;;;26.90;45.80;;;;;;4977966;28;20121;-55
2021/08/02 06:04:37;;;;;;;4.88;1.58;;;27.00;45.90;;;;;;4978121;28;20038;-53
2021/08/02 06:07:03;;;;;;;2.50;1.50;;;27.00;45.80;;;;;;4994356;28;20117;-52
2021/08/02 06:09:29;;;;;;;2.80;1.60;;;27.00;45.70;;;;;;4995027;28;20470;-52
2021/08/02 06:11:55;;;;;;;2.53;1.42;;;27.00;45.70;;;;;;4977373;28;20023;-54
2021/08/02 06:14:20;;;;;;;3.15;1.67;;;27.00;45.70;;;;;;4995043;28;20466;-52
2021/08/02 06:16:46;;;;;;;3.75;1.40;;;27.00;46.20;;;;;;4995160;28;20038;-54
2021/08/02 06:19:11;;;;;;;4.97;1.50;;;27.10;45.50;;;;;;4994737;28;20289;-54
2021/08/02 06:21:38;;;;;;;4.97;1.55;;;27.10;45.40;;;;;;4995103;28;20019;-52
2021/08/02 06:24:04;;;;;;;3.20;1.50;;;27.10;45.40;;;;;;4994418;28;20117;-54
2021/08/02 06:26:31;;;;;;;3.70;1.50;;;27.10;45.30;;;;;;4961633;28;20216;-50
2021/08/02 06:28:57;;;;;;;4.72;1.60;;;27.10;45.20;;;;;;4976834;28;20370;-52
2021/08/02 06:31:22;;;;;;;2.20;1.40;;;27.10;45.10;;;;;;4994680;28;20080;-49
2021/08/02 06:33:48;;;;;;;2.42;1.27;;;27.10;45.10;;;;;;4994646;28;20140;-49
2021/08/02 06:36:17;;;;;;;1.88;1.42;;;27.10;45.00;;;;;;4994068;28;20031;-53
2021/08/02 06:38:43;;;;;;;2.38;1.50;;;27.10;45.00;;;;;;4994576;28;20033;-51
2021/08/02 06:41:08;;;;;;;2.95;1.52;;;27.10;44.90;;;;;;4993876;28;20030;-51
2021/08/02 06:43:34;;;;;;;2.80;1.50;;;27.10;44.90;;;;;;4994405;28;20034;-52
2021/08/02 06:46:00;;;;;;;2.88;1.58;;;27.20;45.00;;;;;;4994134;28;20030;-52
2021/08/02 06:48:26;;;;;;;4.53;1.40;;;27.20;45.00;;;;;;4994525;28;20453;-49
2021/08/02 06:50:51;;;;;;;2.90;1.42;;;27.20;44.90;;;;;;4976879;28;20385;-51
2021/08/02 06:53:18;;;;;;;3.30;1.52;;;27.20;44.80;;;;;;4993467;28;20027;-54
2021/08/02 06:55:47;;;;;;;4.18;1.25;;;27.20;44.70;;;;;;4976805;28;20491;-53
2021/08/02 06:58:13;;;;;;;6.55;1.70;;;27.30;45.30;;;;;;4993734;28;20386;-49
2021/08/02 07:00:39;;;;;;;2.95;1.50;;;27.40;44.50;;;;;;4976723;28;20026;-53
2021/08/02 07:03:05;;;;;;;2.72;1.42;;;27.50;44.30;;;;;;4976248;28;20093;-51
2021/08/02 07:05:31;;;;;;;3.83;1.70;;;27.60;44.10;;;;;;4993652;28;20045;-50
2021/08/02 07:07:57;;;;;;;2.05;1.40;;;27.70;43.90;;;;;;4993528;28;20038;-53
2021/08/02 07:10:22;;;;;;;4.07;1.38;;;27.70;43.80;;;;;;4976524;28;20026;-52
2021/08/02 07:12:48;;;;;;;2.28;1.33;;;27.80;43.70;;;;;;4993821;28;20026;-50
2021/08/02 07:15:14;;;;;;;3.30;1.60;;;27.90;43.60;;;;;;4993285;28;20038;-53
2021/08/02 07:17:39;;;;;;;3.25;1.60;;;28.00;43.40;;;;;;4993528;28;20041;-54
2021/08/02 07:20:05;;;;;;;4.05;1.40;;;28.00;43.20;;;;;;4993233;28;20027;-51
2021/08/02 07:22:31;;;;;;;7.15;1.92;;;28.00;43.10;;;;;;4993954;28;20105;-51
2021/08/02 07:24:57;;;;;;;3.55;1.70;;;28.00;43.10;;;;;;4993228;28;20109;-50
2021/08/02 07:27:23;;;;;;;3.33;1.70;;;28.00;43.10;;;;;;4976191;28;20389;-51
2021/08/02 07:29:48;;;;;;;3.08;1.40;;;28.10;43.20;;;;;;4976216;28;20026;-51
2021/08/02 07:32:14;;;;;;;1.90;1.23;;;28.00;43.10;;;;;;4992776;28;20109;-49
2021/08/02 07:34:40;;;;;;;2.90;1.60;;;28.10;43.10;;;;;;4975763;28;20113;-48
2021/08/02 07:37:06;;;;;;;3.28;1.40;;;28.10;43.20;;;;;;4975607;28;20057;-48
2021/08/02 07:39:32;;;;;;;2.40;1.30;;;28.10;43.20;;;;;;4993803;28;20044;-49
2021/08/02 07:41:58;;;;;;;2.10;1.13;;;28.10;43.20;;;;;;4991794;28;20031;-53
2021/08/02 07:44:24;;;;;;;1.75;1.27;;;28.10;43.10;;;;;;4992721;28;20026;-50
2021/08/02 07:46:49;;;;;;;5.32;1.58;;;28.10;43.10;;;;;;4992870;28;20375;-52
2021/08/02 07:49:35;;;;;;;2.40;1.45;;;28.10;43.10;;;;;;4974444;28;20033;-54
2021/08/02 07:52:01;;;;;;;3.85;2.00;;;28.10;43.10;;;;;;4992456;28;20034;-49
2021/08/02 07:54:28;;;;;;;2.30;1.50;;;28.10;43.00;;;;;;4993127;28;20042;-51
2021/08/02 07:56:53;;;;;;;5.40;1.60;;;28.10;43.10;;;;;;4975350;28;20027;-53
2021/08/02 07:59:19;;;;;;;3.15;1.83;;;28.10;43.20;;;;;;4974708;28;20045;-48
2021/08/02 08:01:45;;;;;;;2.63;1.50;;;28.20;43.40;;;;;;4992523;28;20053;-53
2021/08/02 08:04:10;;;;;;;2.55;1.40;;;28.20;43.40;;;;;;4992226;28;20041;-51
2021/08/02 08:06:36;;;;;;;4.18;1.40;;;28.10;43.20;;;;;;4992412;28;20058;-49
2021/08/02 08:09:02;;;;;;;2.22;1.30;;;28.20;43.40;;;;;;4991888;28;20036;-53
2021/08/02 08:11:28;;;;;;;2.97;1.42;;;28.20;43.30;;;;;;4991676;28;20410;-50
2021/08/02 08:13:53;;;;;;;2.50;1.25;;;28.20;43.30;;;;;;4974884;28;20498;-53
2021/08/02 08:16:19;;;;;;;1.90;1.10;;;28.10;43.20;;;;;;4991381;28;20481;-50
2021/08/02 08:18:45;;;;;;;2.47;1.20;;;28.20;43.30;;;;;;4992045;28;20025;-53
2021/08/02 08:21:14;;;;;;;2.80;1.20;;;28.10;43.30;;;;;;4991274;28;20109;-50
2021/08/02 08:23:40;;;;;;;4.05;1.92;;;28.20;43.40;;;;;;4991763;28;20046;-52
2021/08/02 08:26:06;;;;;;;2.03;1.52;;;28.20;43.50;;;;;;4991669;28;20027;-49
2021/08/02 08:28:31;;;;;;;3.45;1.35;;;28.20;43.50;;;;;;4992262;28;20081;-51
2021/08/02 08:30:57;;;;;;;2.50;1.30;;;28.20;43.60;;;;;;4992694;28;20068;-51
2021/08/02 08:33:29;;;;;;;2.60;1.20;;;28.20;43.40;;;;;;4974555;28;20512;-50
2021/08/02 08:35:56;;;;;;;2.85;1.45;;;28.20;43.40;;;;;;4992680;28;20035;-50
2021/08/02 08:38:22;;;;;;;2.22;1.08;;;28.20;43.50;;;;;;4974318;28;20469;-53
2021/08/02 08:40:48;;;;;;;3.90;1.30;;;28.20;43.50;;;;;;4974780;28;20061;-53
2021/08/02 08:43:18;;;;;;;5.60;1.75;;;28.20;43.50;;;;;;4991857;28;20119;-50
2021/08/02 08:45:44;;;;;;;4.43;1.20;;;28.20;43.70;;;;;;4991746;28;20022;-51
2021/08/02 08:48:09;;;;;;;4.30;1.40;;;28.20;43.70;;;;;;4991354;28;20058;-52
2021/08/02 08:50:38;;;;;;;3.78;1.60;;;28.20;43.70;;;;;;4992184;28;20030;-52
2021/08/02 08:53:05;;;;;;;2.60;1.42;;;28.20;43.80;;;;;;4991512;28;20027;-51
2021/08/02 08:55:31;;;;;;;4.80;1.60;;;28.20;43.80;;;;;;4992019;28;20089;-53
2021/08/02 08:58:00;;;;;;;3.28;1.30;;;28.30;43.90;;;;;;4991922;28;20563;-53
2021/08/02 09:00:27;;;;;;;2.78;1.40;;;28.30;43.90;;;;;;4975664;28;20026;-51
2021/08/02 09:02:54;;;;;;;3.22;1.30;;;28.30;43.80;;;;;;4978367;28;20031;-51
2021/08/02 09:05:30;;;;;;;4.32;1.30;;;28.30;43.70;;;;;;4977050;28;20497;-51
2021/08/02 09:07:56;;;;;;;3.50;1.38;;;28.30;43.70;;;;;;4995241;28;20145;-52
2021/08/02 09:10:23;;;;;;;4.13;1.52;;;28.30;43.70;;;;;;4994792;28;20489;-50
2021/08/02 09:12:56;;;;;;;5.57;1.63;;;28.30;43.70;;;;;;4995778;28;20030;-51
2021/08/02 09:15:43;;;;;;;3.42;1.35;;;28.30;43.60;;;;;;4995309;28;20465;-50
2021/08/02 09:18:15;;;;;;;4.53;1.40;;;28.30;43.60;;;;;;4995624;28;20048;-51
2021/08/02 09:20:40;;;;;;;2.40;1.25;;;28.30;43.50;;;;;;4995579;28;20026;-51
2021/08/02 09:23:15;;;;;;;6.43;1.33;;;28.40;43.60;;;;;;4977920;28;20415;-49
2021/08/02 09:25:49;;;;;;;2.85;1.55;;;28.30;43.80;;;;;;4995849;28;20528;-50
2021/08/02 09:28:18;;;;;;;1.88;1.20;;;28.40;43.60;;;;;;4995211;28;20535;-52
2021/08/02 09:30:56;;;;;;;3.70;1.50;;;28.40;43.60;;;;;;4995325;28;20034;-53
2021/08/02 09:33:22;;;;;;;2.38;1.40;;;28.40;43.50;;;;;;4994845;28;20018;-51
2021/08/02 09:35:51;;;;;;;2.75;1.40;;;28.40;43.40;;;;;;4977724;28;20030;-52
2021/08/02 09:38:20;;;;;;;4.32;1.38;;;28.40;43.30;;;;;;4961671;28;20026;-51
2021/08/02 09:40:51;;;;;;;2.53;1.20;;;28.40;43.20;;;;;;4995034;28;20404;-52
2021/08/02 09:43:24;;;;;;;2.67;1.40;;;28.50;43.40;;;;;;4994649;28;20109;-49
2021/08/02 09:45:52;;;;;;;;;;;28.40;43.10;;;;;;4995509;28;20033;-54
2021/08/02 09:48:19;;;;;;;3.47;1.50;;;28.50;43.10;;;;;;4976457;28;20138;-52
2021/08/02 09:50:47;;;;;;;5.10;1.50;;;28.50;43.00;;;;;;4977193;28;20381;-52
2021/08/02 09:53:15;;;;;;;2.72;1.50;;;28.50;43.00;;;;;;4994243;28;20030;-49
2021/08/02 09:55:43;;;;;;;2.78;1.33;;;28.50;43.20;;;;;;4994680;28;20022;-49
2021/08/02 09:58:18;;;;;;;5.40;1.60;;;28.50;43.30;;;;;;4976729;28;20030;-52
2021/08/02 10:00:44;;;;;;;3.42;1.35;;;28.50;43.40;;;;;;4994756;28;20018;-49
2021/08/02 10:03:10;;;;;;;3.38;1.40;;;28.50;43.40;;;;;;4994217;28;20462;-48
2021/08/02 10:05:38;;;;;;;2.15;1.30;;;28.50;43.50;;;;;;4994211;28;20070;-54
2021/08/02 10:08:05;;;;;;;2.47;1.42;;;28.50;43.70;;;;;;4976709;28;20050;-53
2021/08/02 10:10:31;;;;;;;1.90;1.30;;;28.60;43.70;;;;;;4976095;28;20497;-52
2021/08/02 10:12:57;;;;;;;1.77;1.13;;;28.60;43.80;;;;;;4976766;28;20121;-49
2021/08/02 10:15:29;;;;;;;2.60;1.25;;;28.60;43.80;;;;;;4993717;28;20065;-52
2021/08/02 10:18:00;;;;;;;4.55;1.38;;;28.60;43.90;;;;;;4994587;28;20090;-51
2021/08/02 10:20:31;;;;;;;2.30;1.38;;;28.60;43.90;;;;;;4994138;28;20062;-52
2021/08/02 10:22:58;;;;;;;1.85;1.10;;;28.60;44.20;;;;;;4994327;28;20022;-52
2021/08/02 10:25:41;;;;;;;1.92;1.33;;;28.70;44.00;;;;;;4976029;28;20184;-51
2021/08/02 10:28:11;;;;;;;1.75;1.17;;;28.60;44.10;;;;;;4994175;28;20030;-51
2021/08/02 10:30:39;;;;;;;2.63;1.40;;;28.70;44.10;;;;;;4994221;28;20026;-48
2021/08/02 10:33:04;;;;;;;1.77;1.23;;;28.70;44.10;;;;;;4994205;28;20058;-54
2021/08/02 10:35:45;;;;;;;2.60;1.60;;;28.70;44.10;;;;;;4993395;28;20367;-50
2021/08/02 10:38:15;;;;;;;4.90;1.70;;;28.70;44.10;;;;;;4993726;28;20034;-53
2021/08/02 10:40:49;;;;;;;1.83;1.48;;;28.70;44.10;;;;;;4976544;28;20062;-49
2021/08/02 10:43:34;;;;;;;2.22;1.50;;;28.80;44.20;;;;;;4992846;28;20106;-54
2021/08/02 10:46:13;;;;;;;3.13;1.70;;;28.70;44.10;;;;;;4993666;28;20097;-54
2021/08/02 10:48:39;;;;;;;2.13;1.30;;;28.80;44.10;;;;;;4975837;28;20424;-54
2021/08/02 10:51:13;;;;;;;3.92;1.50;;;28.80;44.50;;;;;;4993861;28;20030;-50
2021/08/02 10:53:39;;;;;;;2.50;1.58;;;28.80;44.70;;;;;;4993364;28;20105;-48
2021/08/02 10:56:05;;;;;;;1.50;1.10;;;28.80;44.30;;;;;;4993632;28;20358;-50
2021/08/02 10:58:36;;;;;;;3.45;1.40;;;28.90;44.30;;;;;;4992893;28;20110;-50
2021/08/02 11:01:10;;;;;;;4.18;1.40;;;28.80;44.80;;;;;;4993453;28;20018;-52
2021/08/02 11:03:38;;;;;;;2.65;1.40;;;28.90;44.30;;;;;;4992752;28;20427;-47
2021/08/02 11:06:17;;;;;;;3.40;1.60;;;28.90;44.30;;;;;;4993356;28;20050;-52
2021/08/02 11:08:49;;;;;;;3.03;1.65;;;28.90;44.40;;;;;;4993241;28;20033;-49
2021/08/02 11:11:26;;;;;;;2.85;1.73;;;28.90;44.30;;;;;;4975360;28;20034;-53
2021/08/02 11:14:08;;;;;;;4.35;1.85;;;28.90;44.20;;;;;;4976417;28;20421;-51
2021/08/02 11:16:41;;;;;;;2.28;1.67;;;28.90;44.10;;;;;;4993188;28;20240;-49
2021/08/02 11:19:17;;;;;;;2.72;1.77;;;28.90;43.80;;;;;;4975588;28;20030;-53
2021/08/02 11:21:45;;;;;;;3.53;1.98;;;28.90;43.70;;;;;;4993369;28;20117;-51
2021/08/02 11:24:11;;;;;;;3.65;1.80;;;28.90;43.40;;;;;;4992415;28;20062;-48
2021/08/02 11:26:55;;;;;;;6.18;1.70;;;28.90;43.30;;;;;;4992616;28;20031;-51
2021/08/02 11:29:24;;;;;;;3.58;1.85;;;28.90;43.40;;;;;;4992682;28;20023;-54
2021/08/02 11:31:53;;;;;;;3.55;1.70;;;28.90;43.40;;;;;;4992803;28;20030;-53
2021/08/02 11:34:20;;;;;;;3.75;1.48;;;28.90;43.30;;;;;;4974490;28;20053;-53
2021/08/02 11:37:05;;;;;;;3.22;1.33;;;28.90;43.10;;;;;;4992827;28;20208;-50
2021/08/02 11:39:36;;;;;;;2.63;1.60;;;28.90;43.10;;;;;;4992085;28;20373;-52
2021/08/02 11:42:02;;;;;;;3.03;1.65;;;28.90;42.60;;;;;;4989594;28;20076;-52
2021/08/02 11:44:28;;;;;;;3.13;1.60;;;29.00;42.30;;;;;;4992352;28;20070;-48
2021/08/02 11:46:55;;;;;;;2.67;1.60;;;28.90;42.30;;;;;;4992461;28;20033;-53
2021/08/02 11:49:21;;;;;;;2.30;1.58;;;28.90;42.70;;;;;;4975017;28;20026;-51
2021/08/02 11:51:47;;;;;;;3.47;1.65;;;29.00;42.70;;;;;;4993608;28;20036;-54
2021/08/02 11:54:23;;;;;;;6.05;1.80;;;28.90;42.60;;;;;;4988625;28;20034;-52
2021/08/02 11:56:49;;;;;;;3.13;1.70;;;28.90;43.10;;;;;;4993147;28;20022;-52
2021/08/02 11:59:52;;;;;;;3.20;2.00;;;29.00;43.10;;;;;;4992879;28;20029;-51
2021/08/02 12:02:17;;;;;;;2.80;1.60;;;29.00;43.20;;;;;;4974145;28;20029;-53
2021/08/02 12:04:43;;;;;;;3.47;1.70;;;29.10;43.20;;;;;;4976006;28;20452;-52
2021/08/02 12:07:09;;;;;;;2.90;1.80;;;29.10;43.20;;;;;;4993087;28;20054;-53
2021/08/02 12:09:36;;;;;;;2.47;1.52;;;29.10;43.40;;;;;;4992527;28;20057;-53
2021/08/02 12:12:05;;;;;;;4.00;1.80;;;29.10;43.40;;;;;;4974358;28;20034;-54
2021/08/02 12:14:33;;;;;;;2.50;1.67;;;29.10;43.40;;;;;;4991100;28;20049;-54
2021/08/02 12:17:01;;;;;;;2.47;1.75;;;29.10;43.30;;;;;;4991838;28;20125;-52
2021/08/02 12:22:12;;;;;;;3.42;1.70;;;29.10;43.40;;;;;;4991508;28;20058;-54
2021/08/02 12:24:58;;;;;;;3.60;1.70;;;29.20;43.60;;;;;;4973212;28;20092;-53
2021/08/02 12:27:25;;;;;;;3.42;1.40;;;29.10;43.70;;;;;;4973859;28;20061;-52
2021/08/02 12:30:03;;;;;;;4.15;1.67;;;29.20;43.70;;;;;;4990544;28;20026;-53
2021/08/02 12:32:45;;;;;;;2.75;1.75;;;29.10;43.60;;;;;;4990685;28;20095;-51
2021/08/02 12:35:14;;;;;;;2.40;1.50;;;29.20;43.60;;;;;;4991556;28;20053;-53
2021/08/02 12:37:41;;;;;;;2.20;1.60;;;29.20;43.70;;;;;;4991323;28;20511;-54
2021/08/02 12:40:10;;;;;;;2.42;1.30;;;29.20;43.70;;;;;;4973311;28;20306;-50
2021/08/02 12:42:47;;;;;;;3.72;1.70;;;29.20;43.70;;;;;;4990039;28;20437;-52
2021/08/02 12:45:14;;;;;;;3.08;1.80;;;29.20;43.60;;;;;;4973554;28;20037;-52
2021/08/02 12:47:41;;;;;;;5.97;2.30;;;29.20;43.60;;;;;;4973206;28;20026;-53
2021/08/02 12:50:08;;;;;;;4.65;2.47;;;29.20;43.60;;;;;;4973411;28;20031;-51
2021/08/02 12:52:37;;;;;;;8.48;2.80;;;29.20;43.70;;;;;;4973212;28;20026;-52
2021/08/02 12:55:05;;;;;;;8.65;3.40;;;29.30;43.60;;;;;;4972990;28;20465;-51
2021/08/02 12:57:34;;;;;;;6.50;3.53;;;29.30;43.60;;;;;;4990859;28;20046;-52
2021/08/02 13:00:00;;;;;;;12.07;4.47;;;29.30;43.60;;;;;;4991351;28;20062;-50